Time;durP1;ratioP1;P1;durP2;ratioP2;P2;SDS_P1;SDS_P2;PMS_P1;PMS_P2;Temp;Humidity;BMP_temperature;BMP_pressure;BME280_temperature;BME280_humidity;BME280_pressure;Samples;Min_cycle;Max_cycle;Signal;HPM_P1;HPM_P2
2021/05/12 00:02:05;;;;;;;1.35;1.00;;;;;;;;;;5092295;28;20027;-15
2021/05/12 00:04:30;;;;;;;2.35;1.83;;;;;;;;;;5093473;28;20024;-14
2021/05/12 00:06:56;;;;;;;3.45;1.30;;;;;;;;;;5093693;28;20020;-15
2021/05/12 00:09:21;;;;;;;1.02;0.82;;;;;;;;;;5093584;28;20066;-15
2021/05/12 00:11:46;;;;;;;1.42;1.20;;;;;;;;;;5093540;28;20386;-15
2021/05/12 00:14:12;;;;;;;3.20;1.50;;;;;;;;;;5109432;28;20020;-15
2021/05/12 00:16:37;;;;;;;2.15;1.60;;;;;;;;;;5093296;28;20352;-15
2021/05/12 00:19:03;;;;;;;3.75;1.30;;;;;;;;;;5093432;28;20028;-15
2021/05/12 00:21:33;;;;;;;2.03;1.42;;;;;;;;;;5093234;28;20020;-15
2021/05/12 00:24:02;;;;;;;1.45;1.35;;;;;;;;;;5093049;28;20081;-15
2021/05/12 00:26:32;;;;;;;3.08;1.42;;;;;;;;;;5093310;28;20404;-15
2021/05/12 00:28:58;;;;;;;3.97;1.60;;;;;;;;;;5091716;28;20036;-14
2021/05/12 00:31:23;;;;;;;1.70;1.52;;;;;;;;;;5108451;28;20044;-15
2021/05/12 00:33:48;;;;;;;3.67;1.52;;;;;;;;;;5108523;28;20032;-14
2021/05/12 00:36:14;;;;;;;3.92;1.50;;;;;;;;;;5092956;28;20073;-15
2021/05/12 00:38:39;;;;;;;1.98;1.50;;;;;;;;;;5092957;28;20458;-15
2021/05/12 00:41:04;;;;;;;2.40;1.15;;;;;;;;;;5093162;28;20140;-15
2021/05/12 00:43:30;;;;;;;2.58;1.98;;;;;;;;;;5092725;28;20475;-14
2021/05/12 00:45:55;;;;;;;3.13;1.67;;;;;;;;;;5092869;28;20012;-15
2021/05/12 00:48:21;;;;;;;5.32;1.48;;;;;;;;;;5092508;28;20050;-15
2021/05/12 00:50:46;;;;;;;2.30;1.25;;;;;;;;;;5093081;28;20382;-15
2021/05/12 00:53:11;;;;;;;1.30;1.20;;;;;;;;;;5092786;28;20617;-13
2021/05/12 00:55:37;;;;;;;2.30;1.48;;;;;;;;;;5092559;28;20027;-15
2021/05/12 00:58:02;;;;;;;1.65;1.52;;;;;;;;;;5092746;28;20056;-15
2021/05/12 01:00:30;;;;;;;3.42;1.58;;;;;;;;;;5092541;28;20047;-14
2021/05/12 01:02:56;;;;;;;2.78;1.20;;;;;;;;;;5092808;28;20431;-15
2021/05/12 01:05:48;;;;;;;2.13;1.67;;;;;;;;;;5092579;28;20044;-15
2021/05/12 01:08:13;;;;;;;2.75;1.42;;;;;;;;;;5075247;28;20615;-15
2021/05/12 01:10:38;;;;;;;1.17;1.00;;;;;;;;;;5092392;28;20020;-15
2021/05/12 01:13:04;;;;;;;1.63;1.17;;;;;;;;;;5092437;28;20489;-15
2021/05/12 01:15:29;;;;;;;2.05;1.08;;;;;;;;;;5092648;28;20020;-15
2021/05/12 01:18:10;;;;;;;3.28;0.93;;;;;;;;;;5091091;28;20435;-14
2021/05/12 01:20:54;;;;;;;6.43;1.30;;;;;;;;;;5092372;28;20067;-15
2021/05/12 01:23:21;;;;;;;3.28;1.40;;;;;;;;;;5092473;28;20111;-15
2021/05/12 01:25:47;;;;;;;1.10;1.00;;;;;;;;;;5092421;28;20047;-15
2021/05/12 01:28:12;;;;;;;2.38;1.02;;;;;;;;;;5092259;28;20071;-15
2021/05/12 01:30:38;;;;;;;1.73;1.08;;;;;;;;;;5092069;28;20075;-14
2021/05/12 01:33:03;;;;;;;1.77;1.25;;;;;;;;;;5092260;28;20044;-19
2021/05/12 01:35:29;;;;;;;1.42;1.05;;;;;;;;;;5092203;28;20082;-14
2021/05/12 01:37:54;;;;;;;1.33;1.13;;;;;;;;;;5092458;28;20032;-15
2021/05/12 01:40:19;;;;;;;2.63;1.02;;;;;;;;;;5092448;28;20375;-23
2021/05/12 01:42:45;;;;;;;1.00;0.90;;;;;;;;;;5092439;28;20433;-14
2021/05/12 01:45:10;;;;;;;1.92;1.00;;;;;;;;;;5092136;28;20026;-15
2021/05/12 01:47:36;;;;;;;3.30;1.85;;;;;;;;;;5091986;28;20032;-15
2021/05/12 01:50:06;;;;;;;2.05;0.80;;;;;;;;;;5092884;28;20081;-15
2021/05/12 01:52:36;;;;;;;4.97;0.80;;;;;;;;;;5096041;28;20039;-14
2021/05/12 01:55:01;;;;;;;1.10;0.80;;;;;;;;;;5096145;28;20020;-14
2021/05/12 01:57:26;;;;;;;1.48;0.80;;;;;;;;;;5111573;28;20069;-15
2021/05/12 01:59:51;;;;;;;2.03;1.00;;;;;;;;;;5095835;28;20043;-15
2021/05/12 02:02:17;;;;;;;2.95;1.00;;;;;;;;;;5095780;28;20028;-14
2021/05/12 02:04:42;;;;;;;3.35;0.98;;;;;;;;;;5095827;28;20020;-14
2021/05/12 02:07:07;;;;;;;1.48;1.38;;;;;;;;;;5095875;28;20027;-15
2021/05/12 02:09:37;;;;;;;1.45;1.35;;;;;;;;;;5095618;28;20021;-15
2021/05/12 02:12:03;;;;;;;1.50;0.98;;;;;;;;;;5095646;28;20020;-15
2021/05/12 02:14:29;;;;;;;6.07;1.27;;;;;;;;;;5095586;28;20043;-14
2021/05/12 02:16:54;;;;;;;27.02;1.55;;;;;;;;;;5095594;28;20016;-14
2021/05/12 02:19:19;;;;;;;1.55;0.80;;;;;;;;;;5095492;28;20099;-14
2021/05/12 02:21:45;;;;;;;1.85;0.98;;;;;;;;;;5095348;28;20069;-14
2021/05/12 02:24:10;;;;;;;2.60;1.42;;;;;;;;;;5093459;28;20522;-15
2021/05/12 02:26:37;;;;;;;1.08;0.98;;;;;;;;;;5095586;28;20036;-15
2021/05/12 02:29:02;;;;;;;1.23;0.90;;;;;;;;;;5093626;28;20035;-15
2021/05/12 02:31:28;;;;;;;0.82;0.60;;;;;;;;;;5095211;28;20036;-14
2021/05/12 02:33:53;;;;;;;1.65;0.95;;;;;;;;;;5095318;28;20059;-14
2021/05/12 02:36:18;;;;;;;1.25;0.70;;;;;;;;;;5095158;28;20086;-15
2021/05/12 02:38:43;;;;;;;1.77;0.85;;;;;;;;;;5095240;28;20018;-16
2021/05/12 02:41:09;;;;;;;0.93;0.68;;;;;;;;;;5095479;28;20028;-15
2021/05/12 02:43:34;;;;;;;2.58;0.90;;;;;;;;;;5093671;28;20374;-14
2021/05/12 02:46:00;;;;;;;1.98;0.90;;;;;;;;;;5093794;28;20032;-15
2021/05/12 02:48:25;;;;;;;4.60;1.05;;;;;;;;;;5094750;28;20027;-15
2021/05/12 02:50:50;;;;;;;1.27;0.88;;;;;;;;;;5095347;28;20085;-15
2021/05/12 02:53:16;;;;;;;1.55;0.65;;;;;;;;;;5094954;28;20012;-15
2021/05/12 02:55:41;;;;;;;1.45;0.95;;;;;;;;;;5095010;28;20036;-14
2021/05/12 02:58:08;;;;;;;1.80;0.95;;;;;;;;;;5094862;28;20023;-15
2021/05/12 03:00:34;;;;;;;3.70;1.20;;;;;;;;;;5094509;28;20081;-14
2021/05/12 03:03:00;;;;;;;5.65;1.38;;;;;;;;;;5094974;28;20438;-15
2021/05/12 03:05:26;;;;;;;2.63;1.40;;;;;;;;;;5094915;28;20056;-15
2021/05/12 03:07:51;;;;;;;2.28;1.35;;;;;;;;;;5094913;28;20048;-15
2021/05/12 03:10:18;;;;;;;1.92;1.27;;;;;;;;;;5094467;28;20083;-14
2021/05/12 03:12:44;;;;;;;1.92;1.08;;;;;;;;;;5094678;28;20020;-15
2021/05/12 03:15:11;;;;;;;1.77;1.38;;;;;;;;;;5094537;28;20035;-15
2021/05/12 03:17:36;;;;;;;1.27;1.00;;;;;;;;;;5094351;28;20047;-16
2021/05/12 03:20:03;;;;;;;1.38;1.27;;;;;;;;;;5094661;28;20078;-14
2021/05/12 03:22:28;;;;;;;2.25;1.13;;;;;;;;;;5094270;28;20482;-15
2021/05/12 03:24:54;;;;;;;3.97;1.10;;;;;;;;;;5110006;28;20051;-15
2021/05/12 03:27:19;;;;;;;1.17;1.05;;;;;;;;;;5094242;28;20028;-16
2021/05/12 03:29:44;;;;;;;1.63;1.08;;;;;;;;;;5094232;28;20131;-15
2021/05/12 03:32:10;;;;;;;3.60;1.13;;;;;;;;;;5094104;28;20104;-15
2021/05/12 03:34:35;;;;;;;2.42;1.20;;;;;;;;;;5094345;28;20069;-15
2021/05/12 03:37:00;;;;;;;1.90;1.10;;;;;;;;;;5094348;28;20510;-15
2021/05/12 03:39:26;;;;;;;4.05;1.45;;;;;;;;;;5109623;28;20028;-15
2021/05/12 03:41:51;;;;;;;1.90;0.80;;;;;;;;;;5094288;28;20095;-14
2021/05/12 03:44:17;;;;;;;4.05;1.00;;;;;;;;;;5094177;28;20401;-14
2021/05/12 03:46:42;;;;;;;3.53;1.38;;;;;;;;;;5094031;28;20153;-15
2021/05/12 03:49:07;;;;;;;3.80;1.13;;;;;;;;;;5093815;28;20414;-15
2021/05/12 03:51:33;;;;;;;1.70;1.27;;;;;;;;;;5093720;28;20012;-15
2021/05/12 03:53:59;;;;;;;3.50;1.08;;;;;;;;;;5093724;28;20039;-14
2021/05/12 03:56:24;;;;;;;1.77;0.80;;;;;;;;;;5093917;28;20027;-14
2021/05/12 03:58:49;;;;;;;8.10;1.30;;;;;;;;;;5094012;28;20475;-14
2021/05/12 04:01:15;;;;;;;1.90;0.90;;;;;;;;;;5093584;28;20450;-14
2021/05/12 04:03:40;;;;;;;0.95;0.70;;;;;;;;;;5093747;28;20059;-14
2021/05/12 04:06:05;;;;;;;0.57;0.57;;;;;;;;;;5092221;28;20020;-14
2021/05/12 04:08:31;;;;;;;1.17;0.90;;;;;;;;;;5093386;28;20054;-14
2021/05/12 04:10:57;;;;;;;2.30;0.90;;;;;;;;;;5093698;28;20455;-14
2021/05/12 04:13:23;;;;;;;3.40;0.77;;;;;;;;;;5092867;28;20020;-14
2021/05/12 04:15:49;;;;;;;0.90;0.80;;;;;;;;;;5092087;28;20020;-15
2021/05/12 04:18:14;;;;;;;2.33;1.00;;;;;;;;;;5093363;28;20036;-15
2021/05/12 04:20:40;;;;;;;1.58;1.00;;;;;;;;;;5093481;28;20681;-15
2021/05/12 04:23:05;;;;;;;1.20;0.63;;;;;;;;;;5093217;28;20684;-15
2021/05/12 04:25:31;;;;;;;0.70;0.57;;;;;;;;;;5093113;28;20086;-15
2021/05/12 04:27:56;;;;;;;0.50;0.50;;;;;;;;;;5093085;28;20028;-15
2021/05/12 04:30:22;;;;;;;4.22;0.73;;;;;;;;;;5092725;28;20044;-15
2021/05/12 04:32:49;;;;;;;0.70;0.35;;;;;;;;;;5091720;28;20028;-14
2021/05/12 04:35:18;;;;;;;0.60;0.50;;;;;;;;;;5092946;28;20416;-14
2021/05/12 04:37:43;;;;;;;1.48;0.55;;;;;;;;;;5108662;28;20112;-14
2021/05/12 04:40:09;;;;;;;2.88;0.77;;;;;;;;;;5093022;28;20097;-14
2021/05/12 04:42:34;;;;;;;1.17;0.57;;;;;;;;;;5093015;28;20097;-14
2021/05/12 04:44:59;;;;;;;1.38;0.30;;;;;;;;;;5092962;28;20387;-14
2021/05/12 04:47:25;;;;;;;2.78;0.30;;;;;;;;;;5092727;28;20103;-15
2021/05/12 04:49:50;;;;;;;0.63;0.38;;;;;;;;;;5092738;28;20031;-14
2021/05/12 04:52:15;;;;;;;9.05;0.40;;;;;;;;;;5092784;28;20028;-16
2021/05/12 04:54:41;;;;;;;2.25;0.28;;;;;;;;;;5092617;28;20020;-15
2021/05/12 04:57:06;;;;;;;0.20;0.20;;;;;;;;;;5092690;28;20478;-15
2021/05/12 04:59:32;;;;;;;0.35;0.28;;;;;;;;;;5108200;28;20440;-15
2021/05/12 05:01:59;;;;;;;0.40;0.40;;;;;;;;;;5092700;28;20020;-15
2021/05/12 05:04:24;;;;;;;0.13;0.13;;;;;;;;;;5092449;28;20462;-16
2021/05/12 05:06:50;;;;;;;0.57;0.35;;;;;;;;;;5092823;28;20046;-15
2021/05/12 05:09:16;;;;;;;0.55;0.30;;;;;;;;;;5092761;28;20032;-15
2021/05/12 05:11:41;;;;;;;0.20;0.20;;;;;;;;;;5090864;28;20111;-15
2021/05/12 05:14:07;;;;;;;0.63;0.45;;;;;;;;;;5108518;28;20024;-14
2021/05/12 05:16:33;;;;;;;0.20;0.20;;;;;;;;;;5092417;28;20035;-15
2021/05/12 05:18:59;;;;;;;0.63;0.50;;;;;;;;;;5092575;28;20016;-16
2021/05/12 05:21:25;;;;;;;0.40;0.30;;;;;;;;;;5092349;28;20028;-14
2021/05/12 05:23:50;;;;;;;0.30;0.30;;;;;;;;;;5092669;28;20020;-15
2021/05/12 05:26:16;;;;;;;0.50;0.40;;;;;;;;;;5095335;28;20098;-15
2021/05/12 05:28:41;;;;;;;0.82;0.30;;;;;;;;;;5078671;28;20024;-15
2021/05/12 05:31:06;;;;;;;0.22;0.20;;;;;;;;;;5096432;28;20036;-15
2021/05/12 05:33:50;;;;;;;3.50;0.32;;;;;;;;;;5096775;28;20089;-14
2021/05/12 05:36:34;;;;;;;0.73;0.68;;;;;;;;;;5096651;28;20486;-15
2021/05/12 05:39:18;;;;;;;0.10;0.10;;;;;;;;;;5109834;28;20073;-16
2021/05/12 05:42:06;;;;;;;0.38;0.35;;;;;;;;;;5096600;28;20513;-15
2021/05/12 05:44:50;;;;;;;1.60;0.22;;;;;;;;;;5096352;28;20111;-14
2021/05/12 05:47:34;;;;;;;0.40;0.40;;;;;;;;;;5096314;28;20047;-14
2021/05/12 05:50:18;;;;;;;0.45;0.40;;;;;;;;;;5109628;28;20128;-15
2021/05/12 05:53:02;;;;;;;0.25;0.25;;;;;;;;;;5096099;28;20039;-15
2021/05/12 05:55:46;;;;;;;0.28;0.28;;;;;;;;;;5096086;28;20108;-16
2021/05/12 05:58:30;;;;;;;0.50;0.30;;;;;;;;;;5096244;28;20036;-16
2021/05/12 06:01:14;;;;;;;0.60;0.57;;;;;;;;;;5095876;28;20509;-15
2021/05/12 06:03:39;;;;;;;6.07;0.77;;;;;;;;;;5094481;28;20028;-15
2021/05/12 06:06:23;;;;;;;0.60;0.60;;;;;;;;;;5096092;28;20081;-15
2021/05/12 06:09:07;;;;;;;2.83;0.73;;;;;;;;;;5095823;28;20533;-14
2021/05/12 06:11:53;;;;;;;0.80;0.40;;;;;;;;;;5109133;28;20073;-20
2021/05/12 06:14:53;;;;;;;0.60;0.30;;;;;;;;;;5093251;28;20054;-15
2021/05/12 06:17:37;;;;;;;0.57;0.40;;;;;;;;;;5095615;28;20055;-15
2021/05/12 06:20:20;;;;;;;0.52;0.50;;;;;;;;;;5095857;28;20080;-16
2021/05/12 06:23:05;;;;;;;1.52;0.60;;;;;;;;;;5095491;28;20547;-15
2021/05/12 06:25:52;;;;;;;0.63;0.63;;;;;;;;;;5095686;28;20407;-14
2021/05/12 06:28:36;;;;;;;1.85;1.02;;;;;;;;;;5095273;28;20513;-15
2021/05/12 06:31:20;;;;;;;0.90;0.63;;;;;;;;;;5095261;28;20062;-15
2021/05/12 06:34:04;;;;;;;0.60;0.30;;;;;;;;;;5095655;28;20039;-15
2021/05/12 06:36:48;;;;;;;0.45;0.45;;;;;;;;;;5094713;28;20098;-15
2021/05/12 06:39:43;;;;;;;0.80;0.60;;;;;;;;;;5057539;28;20041;-14
2021/05/12 06:42:08;;;;;;;1.45;0.80;;;;;;;;;;5093981;28;20501;-15
2021/05/12 06:44:33;;;;;;;0.63;0.50;;;;;;;;;;5093678;28;20496;-16
2021/05/12 06:46:59;;;;;;;1.55;0.50;;;;;;;;;;5095431;28;20386;-14
2021/05/12 06:49:24;;;;;;;1.67;0.60;;;;;;;;;;5094687;28;20032;-14
2021/05/12 06:51:54;;;;;;;0.70;0.45;;;;;;;;;;5094133;28;20111;-15
2021/05/12 06:54:20;;;;;;;0.65;0.50;;;;;;;;;;5095052;28;20051;-15
2021/05/12 06:56:45;;;;;;;1.15;0.70;;;;;;;;;;5110671;28;20063;-15
2021/05/12 06:59:10;;;;;;;2.15;0.77;;;;;;;;;;5094773;28;20012;-16
2021/05/12 07:01:36;;;;;;;1.35;1.10;;;;;;;;;;5094679;28;20024;-15
2021/05/12 07:04:02;;;;;;;1.80;1.10;;;;;;;;;;5094877;28;20432;-15
2021/05/12 07:06:27;;;;;;;1.70;0.98;;;;;;;;;;5110282;28;20039;-15
2021/05/12 07:08:52;;;;;;;1.08;0.77;;;;;;;;;;5094577;28;20024;-15
2021/05/12 07:11:18;;;;;;;0.88;0.60;;;;;;;;;;5094482;28;20088;-14
2021/05/12 07:13:44;;;;;;;1.48;1.00;;;;;;;;;;5094358;28;20023;-15
2021/05/12 07:16:09;;;;;;;0.80;0.50;;;;;;;;;;5094742;28;20041;-15
2021/05/12 07:18:35;;;;;;;0.82;0.35;;;;;;;;;;5110008;28;20020;-15
2021/05/12 07:21:00;;;;;;;1.45;0.40;;;;;;;;;;5094613;28;20028;-15
2021/05/12 07:23:28;;;;;;;1.58;0.80;;;;;;;;;;5094359;28;20539;-15
2021/05/12 07:25:55;;;;;;;1.30;1.15;;;;;;;;;;5094236;28;20059;-15
2021/05/12 07:28:21;;;;;;;2.45;1.20;;;;;;;;;;5094538;28;20020;-17
2021/05/12 07:30:46;;;;;;;1.52;0.40;;;;;;;;;;5094023;28;20044;-15
2021/05/12 07:33:12;;;;;;;0.43;0.40;;;;;;;;;;5110079;28;20032;-15
2021/05/12 07:35:37;;;;;;;0.57;0.50;;;;;;;;;;5094055;28;20032;-15
2021/05/12 07:38:03;;;;;;;3.30;0.70;;;;;;;;;;5092852;28;20045;-15
2021/05/12 07:40:33;;;;;;;3.30;0.70;;;;;;;;;;5094159;28;20038;-14
2021/05/12 07:43:04;;;;;;;0.30;0.30;;;;;;;;;;4739971;28;10000365;-16
2021/05/12 07:45:30;;;;;;;0.85;0.38;;;;;;;;;;5090934;28;20387;-15
2021/05/12 07:47:55;;;;;;;1.85;0.38;;;;;;;;;;5089405;28;20028;-16
2021/05/12 07:50:22;;;;;;;0.30;0.30;;;;;;;;;;5105906;28;20548;-15
2021/05/12 07:52:49;;;;;;;2.15;1.08;;;;;;;;;;5090331;28;20012;-16
2021/05/12 07:55:15;;;;;;;1.38;0.45;;;;;;;;;;5089658;28;20052;-16
2021/05/12 07:57:40;;;;;;;0.68;0.43;;;;;;;;;;5105070;28;20008;-16
2021/05/12 08:00:08;;;;;;;0.25;0.25;;;;;;;;;;5090038;28;20028;-14
2021/05/12 08:02:37;;;;;;;2.67;0.30;;;;;;;;;;5088981;28;20379;-15
2021/05/12 08:05:03;;;;;;;0.82;0.30;;;;;;;;;;5089752;28;20032;-13
2021/05/12 08:07:31;;;;;;;0.40;0.30;;;;;;;;;;5105062;28;20012;-13
2021/05/12 08:09:56;;;;;;;1.75;0.45;;;;;;;;;;5105545;28;20086;-13
2021/05/12 08:12:21;;;;;;;0.40;0.30;;;;;;;;;;5089686;28;20076;-15
2021/05/12 08:14:47;;;;;;;1.27;0.30;;;;;;;;;;5089766;28;20111;-14
2021/05/12 08:17:12;;;;;;;1.35;0.70;;;;;;;;;;5089754;28;20019;-15
2021/05/12 08:19:38;;;;;;;1.42;0.68;;;;;;;;;;5087692;28;20106;-13
2021/05/12 08:22:04;;;;;;;1.55;0.98;;;;;;;;;;5089664;28;20077;-13
2021/05/12 08:24:29;;;;;;;2.55;1.42;;;;;;;;;;5089436;28;20020;-13
2021/05/12 08:26:55;;;;;;;2.83;1.35;;;;;;;;;;5089584;28;20023;-13
2021/05/12 08:29:20;;;;;;;4.70;1.88;;;;;;;;;;5089691;28;20777;-14
2021/05/12 08:31:46;;;;;;;2.97;1.77;;;;;;;;;;5088770;28;20119;-14
2021/05/12 08:34:12;;;;;;;3.75;2.10;;;;;;;;;;5089607;28;20032;-14
2021/05/12 08:36:38;;;;;;;4.18;1.67;;;;;;;;;;5104844;28;20012;-18
2021/05/12 08:39:04;;;;;;;2.95;1.63;;;;;;;;;;5089368;28;20052;-14
2021/05/12 08:41:33;;;;;;;2.88;1.73;;;;;;;;;;5089103;28;20008;-13
2021/05/12 08:44:00;;;;;;;2.97;1.75;;;;;;;;;;5089144;28;20036;-14
2021/05/12 08:46:25;;;;;;;1.27;0.90;;;;;;;;;;5088847;28;20091;-14
2021/05/12 08:48:51;;;;;;;1.48;0.88;;;;;;;;;;5102372;28;20114;-14
2021/05/12 08:51:16;;;;;;;1.92;0.73;;;;;;;;;;5083415;28;20024;-15
2021/05/12 08:53:41;;;;;;;0.73;0.55;;;;;;;;;;5089175;28;20043;-14
2021/05/12 08:56:07;;;;;;;2.63;0.45;;;;;;;;;;5088345;28;20021;-15
2021/05/12 08:58:33;;;;;;;0.50;0.50;;;;;;;;;;5072894;28;20024;-15
2021/05/12 09:00:58;;;;;;;1.65;0.70;;;;;;;;;;5089163;28;20483;-16
2021/05/12 09:03:26;;;;;;;0.40;0.38;;;;;;;;;;5089158;28;20036;-13
2021/05/12 09:05:51;;;;;;;1.23;0.57;;;;;;;;;;5089534;28;20106;-15
2021/05/12 09:08:17;;;;;;;1.40;0.30;;;;;;;;;;5088845;28;20050;-15
2021/05/12 09:10:42;;;;;;;0.28;0.22;;;;;;;;;;5104578;28;20120;-14
2021/05/12 09:13:08;;;;;;;1.10;0.20;;;;;;;;;;5088988;28;20103;-14
2021/05/12 09:15:34;;;;;;;0.43;0.32;;;;;;;;;;5089233;28;20035;-15
2021/05/12 09:18:06;;;;;;;0.55;0.40;;;;;;;;;;5083380;28;20102;-15
2021/05/12 09:20:33;;;;;;;0.35;0.30;;;;;;;;;;5077150;28;20035;-14
2021/05/12 09:23:02;;;;;;;0.22;0.22;;;;;;;;;;5074470;28;20112;-15
2021/05/12 09:25:28;;;;;;;0.20;0.20;;;;;;;;;;5081172;28;20036;-14
2021/05/12 09:28:07;;;;;;;0.28;0.28;;;;;;;;;;5075144;28;20069;-14
2021/05/12 09:30:36;;;;;;;0.28;0.28;;;;;;;;;;5075766;28;20160;-15
2021/05/12 09:33:01;;;;;;;0.40;0.30;;;;;;;;;;5088799;28;20056;-15
2021/05/12 09:35:26;;;;;;;0.25;0.25;;;;;;;;;;5088733;28;20540;-15
2021/05/12 09:37:52;;;;;;;0.60;0.30;;;;;;;;;;5088924;28;20157;-15
2021/05/12 09:40:18;;;;;;;0.50;0.30;;;;;;;;;;5089251;28;20028;-16
2021/05/12 09:42:45;;;;;;;0.38;0.35;;;;;;;;;;5088815;28;20020;-14
2021/05/12 09:45:30;;;;;;;0.30;0.30;;;;;;;;;;5088542;28;20043;-15
2021/05/12 09:47:57;;;;;;;0.70;0.30;;;;;;;;;;5103984;28;20541;-15
2021/05/12 09:50:25;;;;;;;0.28;0.28;;;;;;;;;;5088510;28;20036;-15
2021/05/12 09:52:57;;;;;;;0.32;0.30;;;;;;;;;;5089188;28;20058;-15
2021/05/12 09:55:45;;;;;;;0.30;0.30;;;;;;;;;;5088098;28;20042;-15
2021/05/12 09:58:17;;;;;;;0.38;0.32;;;;;;;;;;5088378;28;20040;-15
2021/05/12 10:00:49;;;;;;;0.30;0.30;;;;;;;;;;5088281;28;20036;-15
2021/05/12 10:03:15;;;;;;;0.73;0.40;;;;;;;;;;5088484;28;20100;-15
2021/05/12 10:05:56;;;;;;;1.95;0.30;;;;;;;;;;5088608;28;20028;-15
2021/05/12 10:08:23;;;;;;;0.98;0.30;;;;;;;;;;5087403;28;20051;-15
2021/05/12 10:10:53;;;;;;;0.30;0.30;;;;;;;;;;5088687;28;20564;-15
2021/05/12 10:13:19;;;;;;;0.30;0.30;;;;;;;;;;5081402;28;20024;-14
2021/05/12 10:15:44;;;;;;;1.38;0.50;;;;;;;;;;5073313;28;20097;-15
2021/05/12 10:18:10;;;;;;;1.50;0.30;;;;;;;;;;5092286;28;20040;-15
2021/05/12 10:20:38;;;;;;;1.10;0.40;;;;;;;;;;5092051;28;20016;-15
2021/05/12 10:23:03;;;;;;;0.30;0.30;;;;;;;;;;5087235;28;20490;-15
2021/05/12 10:25:28;;;;;;;0.30;0.30;;;;;;;;;;5090716;28;20023;-15
2021/05/12 10:27:55;;;;;;;4.38;0.60;;;;;;;;;;5092194;28;20527;-15
2021/05/12 10:30:20;;;;;;;0.22;0.20;;;;;;;;;;5085757;28;20082;-15
2021/05/12 10:32:51;;;;;;;0.32;0.32;;;;;;;;;;5088357;28;20032;-15
2021/05/12 10:35:16;;;;;;;0.20;0.10;;;;;;;;;;5091714;28;20486;-16
2021/05/12 10:37:43;;;;;;;0.52;0.50;;;;;;;;;;5091539;28;20040;-15
2021/05/12 10:40:34;;;;;;;0.20;0.20;;;;;;;;;;5091650;28;20028;-15
2021/05/12 10:45:37;;;;;;;0.30;0.28;;;;;;;;;;5091704;28;20016;-15
2021/05/12 10:48:02;;;;;;;;;;;;;;;;;;5091619;28;20085;-15
2021/05/12 10:50:44;;;;;;;0.38;0.30;;;;;;;;;;5091057;28;19923;-15
2021/05/12 10:53:16;;;;;;;1.35;0.45;;;;;;;;;;5091080;28;20027;-16
2021/05/12 10:56:00;;;;;;;0.50;0.30;;;;;;;;;;5090815;28;20359;-14
2021/05/12 10:58:29;;;;;;;0.80;0.40;;;;;;;;;;5091370;28;20115;-14
2021/05/12 11:00:59;;;;;;;0.98;0.32;;;;;;;;;;5091132;28;20131;-14
2021/05/12 11:03:25;;;;;;;0.35;0.30;;;;;;;;;;5089551;28;20016;-14
2021/05/12 11:05:50;;;;;;;0.20;0.20;;;;;;;;;;5091165;28;20073;-14
2021/05/12 11:08:19;;;;;;;2.25;0.40;;;;;;;;;;5090207;28;20042;-15
2021/05/12 11:10:48;;;;;;;4.03;0.40;;;;;;;;;;5088264;28;20374;-15
2021/05/12 11:13:21;;;;;;;1.65;0.30;;;;;;;;;;5087679;28;20085;-15
2021/05/12 11:15:51;;;;;;;0.50;0.35;;;;;;;;;;5088071;28;20395;-15
2021/05/12 11:18:52;;;;;;;2.40;0.40;;;;;;;;;;5084493;28;20033;-15
2021/05/12 11:21:22;;;;;;;4.75;0.35;;;;;;;;;;5082400;28;20035;-16
2021/05/12 11:24:08;;;;;;;0.45;0.30;;;;;;;;;;4730044;28;10000382;-16
2021/05/12 11:32:08;;;;;;;1.00;0.22;;;;;;;;;;5090691;28;20040;-16
2021/05/12 11:34:37;;;;;;;0.30;0.30;;;;;;;;;;5088562;28;20055;-15
2021/05/12 11:37:05;;;;;;;0.93;0.30;;;;;;;;;;5090377;28;20016;-15
2021/05/12 11:39:30;;;;;;;0.88;0.43;;;;;;;;;;5090596;28;20451;-14
2021/05/12 11:41:55;;;;;;;0.60;0.30;;;;;;;;;;5090479;28;20026;-15
2021/05/12 11:44:21;;;;;;;0.75;0.30;;;;;;;;;;5089203;28;20505;-15
2021/05/12 11:46:46;;;;;;;1.77;0.50;;;;;;;;;;5105805;28;20363;-18
2021/05/12 11:49:13;;;;;;;1.73;0.88;;;;;;;;;;5089588;28;20070;-15
2021/05/12 11:51:39;;;;;;;1.08;0.60;;;;;;;;;;5090377;28;20040;-15
2021/05/12 11:54:06;;;;;;;1.45;0.70;;;;;;;;;;5090332;28;20083;-14
2021/05/12 11:56:31;;;;;;;0.98;0.57;;;;;;;;;;5089622;28;20012;-14
2021/05/12 11:59:02;;;;;;;3.03;0.80;;;;;;;;;;5090409;28;20360;-15
2021/05/12 12:01:29;;;;;;;0.68;0.60;;;;;;;;;;5089442;28;20107;-15
2021/05/12 12:04:04;;;;;;;1.02;0.63;;;;;;;;;;5090097;28;20008;-15
2021/05/12 12:06:30;;;;;;;0.93;0.73;;;;;;;;;;5088569;28;20028;-15
2021/05/12 12:08:55;;;;;;;1.40;0.55;;;;;;;;;;5077552;28;20051;-14
2021/05/12 12:11:21;;;;;;;3.65;0.52;;;;;;;;;;5099738;28;20032;-15
2021/05/12 12:13:56;;;;;;;2.15;0.77;;;;;;;;;;5087358;28;20110;-14
2021/05/12 12:16:22;;;;;;;6.45;0.60;;;;;;;;;;5090206;28;20486;-15
2021/05/12 12:18:48;;;;;;;0.47;0.45;;;;;;;;;;5090205;28;20024;-15
2021/05/12 12:21:24;;;;;;;1.40;0.80;;;;;;;;;;5089949;28;20409;-14
2021/05/12 12:23:50;;;;;;;3.10;0.38;;;;;;;;;;5089823;28;20032;-14
2021/05/12 12:26:17;;;;;;;0.70;0.50;;;;;;;;;;5088277;28;20482;-15
2021/05/12 12:28:43;;;;;;;3.13;0.40;;;;;;;;;;5089696;28;20031;-15
2021/05/12 12:31:12;;;;;;;0.45;0.30;;;;;;;;;;5089511;28;20067;-14
2021/05/12 12:33:38;;;;;;;1.20;0.60;;;;;;;;;;5088658;28;20036;-16
2021/05/12 12:36:05;;;;;;;4.03;0.57;;;;;;;;;;5089193;28;20048;-14
2021/05/12 12:38:32;;;;;;;0.68;0.40;;;;;;;;;;5087258;28;20111;-14
2021/05/12 12:40:57;;;;;;;0.80;0.40;;;;;;;;;;5089943;28;20057;-15
2021/05/12 12:43:23;;;;;;;0.57;0.40;;;;;;;;;;5071477;28;20482;-15
2021/05/12 12:45:48;;;;;;;0.73;0.47;;;;;;;;;;5068826;28;20786;-15
2021/05/12 12:48:14;;;;;;;0.28;0.28;;;;;;;;;;5068958;28;20044;-15
2021/05/12 12:50:41;;;;;;;0.40;0.40;;;;;;;;;;5069175;28;20033;-15
2021/05/12 12:53:07;;;;;;;0.40;0.35;;;;;;;;;;5069454;28;20394;-14
2021/05/12 12:55:34;;;;;;;0.63;0.43;;;;;;;;;;5080326;28;20025;-15
2021/05/12 12:58:03;;;;;;;0.40;0.30;;;;;;;;;;5089004;28;20099;-15
2021/05/12 13:00:32;;;;;;;3.90;0.43;;;;;;;;;;5088223;28;20040;-15
2021/05/12 13:02:59;;;;;;;0.80;0.40;;;;;;;;;;5088534;28;20030;-14
2021/05/12 13:05:26;;;;;;;4.57;0.30;;;;;;;;;;5086583;28;20016;-14
2021/05/12 13:08:10;;;;;;;0.52;0.40;;;;;;;;;;5088781;28;20028;-14
2021/05/12 13:10:39;;;;;;;1.00;0.65;;;;;;;;;;5088750;28;20040;-14
2021/05/12 13:13:04;;;;;;;2.33;0.35;;;;;;;;;;5084583;28;20407;-13
2021/05/12 13:15:30;;;;;;;0.88;0.77;;;;;;;;;;5088752;28;20047;-15
2021/05/12 13:17:57;;;;;;;6.35;0.80;;;;;;;;;;5088494;28;20498;-14
2021/05/12 13:20:23;;;;;;;2.63;0.80;;;;;;;;;;5088581;28;20031;-16
2021/05/12 13:23:03;;;;;;;1.88;0.80;;;;;;;;;;5088673;28;20008;-15
2021/05/12 13:25:28;;;;;;;1.63;1.00;;;;;;;;;;5088189;28;20446;-16
2021/05/12 13:27:53;;;;;;;3.00;0.75;;;;;;;;;;5087220;28;20051;-15
2021/05/12 13:30:19;;;;;;;4.15;1.40;;;;;;;;;;5087288;28;20054;-15
2021/05/12 13:32:44;;;;;;;1.70;1.15;;;;;;;;;;5088921;28;20470;-15
2021/05/12 13:35:10;;;;;;;1.00;0.80;;;;;;;;;;5088900;28;20043;-15
2021/05/12 13:37:38;;;;;;;5.07;1.13;;;;;;;;;;5088072;28;20102;-15
2021/05/12 13:40:04;;;;;;;1.33;1.20;;;;;;;;;;5087373;28;20111;-15
2021/05/12 13:42:29;;;;;;;2.40;1.23;;;;;;;;;;5087175;28;20111;-15
2021/05/12 13:44:55;;;;;;;2.05;1.30;;;;;;;;;;5084032;28;20043;-15
2021/05/12 13:47:20;;;;;;;1.80;1.25;;;;;;;;;;5086869;28;20035;-16
2021/05/12 13:49:46;;;;;;;4.65;1.50;;;;;;;;;;5092681;28;20447;-15
2021/05/12 13:52:12;;;;;;;1.65;1.45;;;;;;;;;;5092721;28;20545;-23
2021/05/12 13:54:45;;;;;;;3.38;1.52;;;;;;;;;;5092220;28;20063;-16
2021/05/12 14:04:48;;;;;;;2.33;2.00;;;;;;;;;;5092029;28;20042;-15
2021/05/12 14:07:14;;;;;;;1.70;1.60;;;;;;;;;;5090622;28;20012;-15
2021/05/12 14:09:44;;;;;;;1.85;1.58;;;;;;;;;;5107840;28;20436;-15
2021/05/12 14:12:11;;;;;;;2.97;2.17;;;;;;;;;;5092179;28;20028;-16
2021/05/12 14:17:30;;;;;;;3.25;1.70;;;;;;;;;;5090196;28;20035;-15
2021/05/12 14:19:56;;;;;;;2.10;1.50;;;;;;;;;;5092076;28;20035;-15
2021/05/12 14:22:22;;;;;;;2.92;2.13;;;;;;;;;;5090536;28;20020;-15
2021/05/12 14:24:47;;;;;;;1.73;1.48;;;;;;;;;;5107153;28;20545;-15
2021/05/12 14:27:13;;;;;;;2.88;1.80;;;;;;;;;;5084870;28;20021;-15
2021/05/12 14:29:42;;;;;;;1.65;1.45;;;;;;;;;;5091729;28;20622;-15
2021/05/12 14:32:11;;;;;;;1.70;1.50;;;;;;;;;;5090351;28;20074;-15
2021/05/12 14:34:36;;;;;;;2.78;1.98;;;;;;;;;;5091741;28;20028;-16
2021/05/12 14:37:02;;;;;;;2.88;1.90;;;;;;;;;;5091767;28;20028;-14
2021/05/12 14:39:32;;;;;;;2.22;2.00;;;;;;;;;;5091642;28;20032;-15
2021/05/12 14:41:59;;;;;;;1.88;1.58;;;;;;;;;;5091164;28;20479;-13
2021/05/12 14:44:25;;;;;;;2.95;1.45;;;;;;;;;;5090707;28;20139;-15
2021/05/12 14:46:50;;;;;;;3.33;1.90;;;;;;;;;;5091323;28;20110;-15
2021/05/12 14:49:16;;;;;;;3.20;1.92;;;;;;;;;;5083069;28;20036;-15
2021/05/12 14:51:49;;;;;;;2.63;1.90;;;;;;;;;;5089867;28;20028;-16
2021/05/12 14:54:21;;;;;;;3.03;1.92;;;;;;;;;;5091865;28;20039;-15
2021/05/12 14:56:50;;;;;;;3.20;1.85;;;;;;;;;;5090439;28;20483;-16
2021/05/12 15:04:37;;;;;;;4.20;1.90;;;;;;;;;;5089787;28;20020;-14
2021/05/12 15:07:03;;;;;;;3.90;2.28;;;;;;;;;;5071635;28;20048;-16
2021/05/12 15:09:28;;;;;;;3.95;1.73;;;;;;;;;;5071178;28;20029;-15
2021/05/12 15:11:55;;;;;;;2.08;1.85;;;;;;;;;;5089361;28;20395;-15
2021/05/12 15:14:20;;;;;;;2.83;1.65;;;;;;;;;;5089780;28;20081;-15